sensor_id;sensor_type;location;lat;lon;timestamp;temperature;humidity
43524;DHT22;29120;52.006;6.020;2023-02-22T00:01:25;8.60;99.90
43524;DHT22;29120;52.006;6.020;2023-02-22T00:04:00;8.60;99.90
43524;DHT22;29120;52.006;6.020;2023-02-22T00:06:25;8.60;99.90
43524;DHT22;29120;52.006;6.020;2023-02-22T00:08:51;8.60;99.90
43524;DHT22;29120;52.006;6.020;2023-02-22T00:11:17;8.60;99.90
43524;DHT22;29120;52.006;6.020;2023-02-22T00:13:44;8.60;99.90
43524;DHT22;29120;52.006;6.020;2023-02-22T00:16:17;8.60;99.90
43524;DHT22;29120;52.006;6.020;2023-02-22T00:18:43;8.60;99.90
43524;DHT22;29120;52.006;6.020;2023-02-22T00:21:10;8.60;99.90
43524;DHT22;29120;52.006;6.020;2023-02-22T00:23:38;8.60;99.90
43524;DHT22;29120;52.006;6.020;2023-02-22T00:26:04;8.60;99.90
43524;DHT22;29120;52.006;6.020;2023-02-22T00:28:30;8.60;99.90
43524;DHT22;29120;52.006;6.020;2023-02-22T00:30:56;8.50;99.90
43524;DHT22;29120;52.006;6.020;2023-02-22T00:33:21;8.50;99.90
43524;DHT22;29120;52.006;6.020;2023-02-22T00:35:47;8.40;99.90
43524;DHT22;29120;52.006;6.020;2023-02-22T00:38:15;8.40;99.90
43524;DHT22;29120;52.006;6.020;2023-02-22T00:40:41;8.40;99.90
43524;DHT22;29120;52.006;6.020;2023-02-22T00:43:06;8.30;99.90
43524;DHT22;29120;52.006;6.020;2023-02-22T00:45:33;8.30;99.90
43524;DHT22;29120;52.006;6.020;2023-02-22T00:47:58;8.30;99.90
43524;DHT22;29120;52.006;6.020;2023-02-22T00:50:24;8.40;99.90
43524;DHT22;29120;52.006;6.020;2023-02-22T00:52:51;8.30;99.90
43524;DHT22;29120;52.006;6.020;2023-02-22T00:55:18;8.30;99.90
43524;DHT22;29120;52.006;6.020;2023-02-22T00:57:44;8.30;99.90
43524;DHT22;29120;52.006;6.020;2023-02-22T01:00:13;8.30;99.90
43524;DHT22;29120;52.006;6.020;2023-02-22T01:02:41;8.30;99.90
43524;DHT22;29120;52.006;6.020;2023-02-22T01:05:07;8.30;99.90
43524;DHT22;29120;52.006;6.020;2023-02-22T01:07:33;8.30;99.90
43524;DHT22;29120;52.006;6.020;2023-02-22T01:09:59;8.30;99.90
43524;DHT22;29120;52.006;6.020;2023-02-22T01:12:25;8.20;99.90
43524;DHT22;29120;52.006;6.020;2023-02-22T01:14:51;8.20;99.90
43524;DHT22;29120;52.006;6.020;2023-02-22T01:17:17;8.20;99.90
43524;DHT22;29120;52.006;6.020;2023-02-22T01:19:43;8.20;99.90
43524;DHT22;29120;52.006;6.020;2023-02-22T01:22:08;8.20;99.90
43524;DHT22;29120;52.006;6.020;2023-02-22T01:24:33;8.20;99.90
43524;DHT22;29120;52.006;6.020;2023-02-22T01:26:59;8.10;99.90
43524;DHT22;29120;52.006;6.020;2023-02-22T01:29:26;8.10;99.90
43524;DHT22;29120;52.006;6.020;2023-02-22T01:31:53;8.10;99.90
43524;DHT22;29120;52.006;6.020;2023-02-22T01:34:19;8.10;99.90
43524;DHT22;29120;52.006;6.020;2023-02-22T01:36:44;8.00;99.90
43524;DHT22;29120;52.006;6.020;2023-02-22T01:39:10;8.00;99.90
43524;DHT22;29120;52.006;6.020;2023-02-22T01:41:35;8.00;99.90
43524;DHT22;29120;52.006;6.020;2023-02-22T01:46:42;8.00;99.90
43524;DHT22;29120;52.006;6.020;2023-02-22T01:49:07;8.00;99.90
43524;DHT22;29120;52.006;6.020;2023-02-22T01:51:44;8.00;99.90
43524;DHT22;29120;52.006;6.020;2023-02-22T01:54:14;7.90;99.90
43524;DHT22;29120;52.006;6.020;2023-02-22T01:56:44;7.90;99.90
43524;DHT22;29120;52.006;6.020;2023-02-22T01:59:10;7.90;99.90
43524;DHT22;29120;52.006;6.020;2023-02-22T02:01:37;7.90;99.90
43524;DHT22;29120;52.006;6.020;2023-02-22T02:04:05;7.90;99.90
43524;DHT22;29120;52.006;6.020;2023-02-22T02:06:32;8.00;99.90
43524;DHT22;29120;52.006;6.020;2023-02-22T02:11:24;8.00;99.90
43524;DHT22;29120;52.006;6.020;2023-02-22T02:13:51;8.00;99.90
43524;DHT22;29120;52.006;6.020;2023-02-22T02:16:20;8.00;99.90
43524;DHT22;29120;52.006;6.020;2023-02-22T02:18:46;8.00;99.90
43524;DHT22;29120;52.006;6.020;2023-02-22T02:24:06;7.90;99.90
43524;DHT22;29120;52.006;6.020;2023-02-22T02:34:57;7.80;99.90
43524;DHT22;29120;52.006;6.020;2023-02-22T02:37:10;7.80;99.90
43524;DHT22;29120;52.006;6.020;2023-02-22T02:39:47;7.80;99.90
43524;DHT22;29120;52.006;6.020;2023-02-22T02:42:15;7.80;99.90
43524;DHT22;29120;52.006;6.020;2023-02-22T02:44:45;7.80;99.90
43524;DHT22;29120;52.006;6.020;2023-02-22T02:47:13;7.90;99.90
43524;DHT22;29120;52.006;6.020;2023-02-22T02:49:42;7.90;99.90
43524;DHT22;29120;52.006;6.020;2023-02-22T02:52:10;7.90;99.90
43524;DHT22;29120;52.006;6.020;2023-02-22T02:54:37;7.80;99.90
43524;DHT22;29120;52.006;6.020;2023-02-22T02:57:03;7.70;99.90
43524;DHT22;29120;52.006;6.020;2023-02-22T02:59:30;7.70;99.90
43524;DHT22;29120;52.006;6.020;2023-02-22T03:02:11;7.60;99.90
43524;DHT22;29120;52.006;6.020;2023-02-22T03:09:43;7.60;99.90
43524;DHT22;29120;52.006;6.020;2023-02-22T03:20:06;7.60;99.90
43524;DHT22;29120;52.006;6.020;2023-02-22T03:22:39;7.60;99.90
43524;DHT22;29120;52.006;6.020;2023-02-22T03:25:16;7.60;99.90
43524;DHT22;29120;52.006;6.020;2023-02-22T03:27:45;7.60;99.90
43524;DHT22;29120;52.006;6.020;2023-02-22T03:30:17;7.60;99.90
43524;DHT22;29120;52.006;6.020;2023-02-22T03:32:45;7.50;99.90
43524;DHT22;29120;52.006;6.020;2023-02-22T03:35:13;7.50;99.90
43524;DHT22;29120;52.006;6.020;2023-02-22T03:37:43;7.40;99.90
43524;DHT22;29120;52.006;6.020;2023-02-22T03:40:13;7.40;99.90
43524;DHT22;29120;52.006;6.020;2023-02-22T03:42:40;7.30;99.90
43524;DHT22;29120;52.006;6.020;2023-02-22T03:45:07;7.30;99.90
43524;DHT22;29120;52.006;6.020;2023-02-22T03:47:36;7.30;99.90
43524;DHT22;29120;52.006;6.020;2023-02-22T03:50:04;7.30;99.90
43524;DHT22;29120;52.006;6.020;2023-02-22T03:52:34;7.30;99.90
43524;DHT22;29120;52.006;6.020;2023-02-22T03:55:00;7.30;99.90
43524;DHT22;29120;52.006;6.020;2023-02-22T03:57:32;7.30;99.90
43524;DHT22;29120;52.006;6.020;2023-02-22T04:00:00;7.30;99.90
43524;DHT22;29120;52.006;6.020;2023-02-22T04:02:25;7.30;99.90
43524;DHT22;29120;52.006;6.020;2023-02-22T04:04:51;7.30;99.90
43524;DHT22;29120;52.006;6.020;2023-02-22T04:07:16;7.30;99.90
43524;DHT22;29120;52.006;6.020;2023-02-22T04:09:42;7.30;99.90
43524;DHT22;29120;52.006;6.020;2023-02-22T04:12:07;7.40;99.90
43524;DHT22;29120;52.006;6.020;2023-02-22T04:14:33;7.40;99.90
43524;DHT22;29120;52.006;6.020;2023-02-22T04:16:58;7.40;99.90
43524;DHT22;29120;52.006;6.020;2023-02-22T04:19:24;7.40;99.90
43524;DHT22;29120;52.006;6.020;2023-02-22T04:21:49;7.40;99.90
43524;DHT22;29120;52.006;6.020;2023-02-22T04:24:15;7.50;99.90
43524;DHT22;29120;52.006;6.020;2023-02-22T04:26:41;7.50;99.90
43524;DHT22;29120;52.006;6.020;2023-02-22T04:29:06;7.50;99.90
43524;DHT22;29120;52.006;6.020;2023-02-22T04:31:32;7.50;99.90
43524;DHT22;29120;52.006;6.020;2023-02-22T04:33:58;7.60;99.90
43524;DHT22;29120;52.006;6.020;2023-02-22T04:36:24;7.50;99.90
43524;DHT22;29120;52.006;6.020;2023-02-22T04:38:49;7.40;99.90
43524;DHT22;29120;52.006;6.020;2023-02-22T04:41:15;7.40;99.90
43524;DHT22;29120;52.006;6.020;2023-02-22T04:43:41;7.30;99.90
43524;DHT22;29120;52.006;6.020;2023-02-22T04:46:06;7.40;99.90
43524;DHT22;29120;52.006;6.020;2023-02-22T04:48:32;7.30;99.90
43524;DHT22;29120;52.006;6.020;2023-02-22T04:50:58;7.30;99.90
43524;DHT22;29120;52.006;6.020;2023-02-22T04:53:23;7.20;99.90
43524;DHT22;29120;52.006;6.020;2023-02-22T04:55:49;7.20;99.90
43524;DHT22;29120;52.006;6.020;2023-02-22T04:58:14;7.20;99.90
43524;DHT22;29120;52.006;6.020;2023-02-22T05:00:40;7.20;99.90
43524;DHT22;29120;52.006;6.020;2023-02-22T05:03:05;7.20;99.90
43524;DHT22;29120;52.006;6.020;2023-02-22T05:05:31;7.10;99.90
43524;DHT22;29120;52.006;6.020;2023-02-22T05:07:56;7.10;99.90
43524;DHT22;29120;52.006;6.020;2023-02-22T05:10:22;7.20;99.90
43524;DHT22;29120;52.006;6.020;2023-02-22T05:12:49;7.20;99.90
43524;DHT22;29120;52.006;6.020;2023-02-22T05:15:15;7.20;99.90
43524;DHT22;29120;52.006;6.020;2023-02-22T05:17:41;7.20;99.90
43524;DHT22;29120;52.006;6.020;2023-02-22T05:20:07;7.20;99.90
43524;DHT22;29120;52.006;6.020;2023-02-22T05:22:33;7.10;99.90
43524;DHT22;29120;52.006;6.020;2023-02-22T05:24:58;7.20;99.90
43524;DHT22;29120;52.006;6.020;2023-02-22T05:27:24;7.20;99.90
43524;DHT22;29120;52.006;6.020;2023-02-22T05:29:49;7.10;99.90
43524;DHT22;29120;52.006;6.020;2023-02-22T05:32:15;7.20;99.90
43524;DHT22;29120;52.006;6.020;2023-02-22T05:34:40;7.10;99.90
43524;DHT22;29120;52.006;6.020;2023-02-22T05:37:05;7.10;99.90
43524;DHT22;29120;52.006;6.020;2023-02-22T05:39:31;7.00;99.90
43524;DHT22;29120;52.006;6.020;2023-02-22T05:41:57;7.00;99.90
43524;DHT22;29120;52.006;6.020;2023-02-22T05:44:22;6.90;99.90
43524;DHT22;29120;52.006;6.020;2023-02-22T05:46:48;6.90;99.90
43524;DHT22;29120;52.006;6.020;2023-02-22T05:49:13;6.90;99.90
43524;DHT22;29120;52.006;6.020;2023-02-22T05:51:39;6.90;99.90
43524;DHT22;29120;52.006;6.020;2023-02-22T05:54:04;6.80;99.90
43524;DHT22;29120;52.006;6.020;2023-02-22T05:56:30;6.80;99.90
43524;DHT22;29120;52.006;6.020;2023-02-22T05:58:56;6.70;99.90
43524;DHT22;29120;52.006;6.020;2023-02-22T06:01:22;6.70;99.90
43524;DHT22;29120;52.006;6.020;2023-02-22T06:03:48;6.70;99.90
43524;DHT22;29120;52.006;6.020;2023-02-22T06:06:14;6.80;99.90
43524;DHT22;29120;52.006;6.020;2023-02-22T06:08:40;6.80;99.90
43524;DHT22;29120;52.006;6.020;2023-02-22T06:11:05;6.70;99.90
43524;DHT22;29120;52.006;6.020;2023-02-22T06:13:31;6.60;99.90
43524;DHT22;29120;52.006;6.020;2023-02-22T06:15:57;6.70;99.90
43524;DHT22;29120;52.006;6.020;2023-02-22T06:18:23;6.70;99.90
43524;DHT22;29120;52.006;6.020;2023-02-22T06:20:51;6.70;99.90
43524;DHT22;29120;52.006;6.020;2023-02-22T06:23:16;6.60;99.90
43524;DHT22;29120;52.006;6.020;2023-02-22T06:25:41;6.60;99.90
43524;DHT22;29120;52.006;6.020;2023-02-22T06:28:07;6.60;99.90
43524;DHT22;29120;52.006;6.020;2023-02-22T06:30:33;6.60;99.90
43524;DHT22;29120;52.006;6.020;2023-02-22T06:32:58;6.60;99.90
43524;DHT22;29120;52.006;6.020;2023-02-22T06:35:24;6.60;99.90
43524;DHT22;29120;52.006;6.020;2023-02-22T06:37:49;6.70;99.90
43524;DHT22;29120;52.006;6.020;2023-02-22T06:40:15;6.60;99.90
43524;DHT22;29120;52.006;6.020;2023-02-22T06:42:40;6.60;99.90
43524;DHT22;29120;52.006;6.020;2023-02-22T06:45:06;6.60;99.90
43524;DHT22;29120;52.006;6.020;2023-02-22T06:47:32;6.50;99.90
43524;DHT22;29120;52.006;6.020;2023-02-22T06:49:57;6.50;99.90
43524;DHT22;29120;52.006;6.020;2023-02-22T06:52:25;6.50;99.90
43524;DHT22;29120;52.006;6.020;2023-02-22T06:54:51;6.50;99.90
43524;DHT22;29120;52.006;6.020;2023-02-22T06:57:16;6.50;99.90
43524;DHT22;29120;52.006;6.020;2023-02-22T06:59:42;6.50;99.90
43524;DHT22;29120;52.006;6.020;2023-02-22T07:02:09;6.60;99.90
43524;DHT22;29120;52.006;6.020;2023-02-22T07:04:34;6.70;99.90
43524;DHT22;29120;52.006;6.020;2023-02-22T07:07:00;6.70;99.90
43524;DHT22;29120;52.006;6.020;2023-02-22T07:09:25;6.70;99.90
43524;DHT22;29120;52.006;6.020;2023-02-22T07:11:51;6.80;99.90
43524;DHT22;29120;52.006;6.020;2023-02-22T07:14:16;6.70;99.90
43524;DHT22;29120;52.006;6.020;2023-02-22T07:16:42;6.70;99.90
43524;DHT22;29120;52.006;6.020;2023-02-22T07:19:07;6.80;99.90
43524;DHT22;29120;52.006;6.020;2023-02-22T07:21:32;6.80;99.90
43524;DHT22;29120;52.006;6.020;2023-02-22T07:23:58;6.80;99.90
43524;DHT22;29120;52.006;6.020;2023-02-22T07:26:24;6.80;99.90
43524;DHT22;29120;52.006;6.020;2023-02-22T07:28:50;6.80;99.90
43524;DHT22;29120;52.006;6.020;2023-02-22T07:31:15;6.80;99.90
43524;DHT22;29120;52.006;6.020;2023-02-22T07:33:41;6.90;99.90
43524;DHT22;29120;52.006;6.020;2023-02-22T07:36:07;6.90;99.90
43524;DHT22;29120;52.006;6.020;2023-02-22T07:38:32;6.90;99.90
43524;DHT22;29120;52.006;6.020;2023-02-22T07:40:58;7.00;99.90
43524;DHT22;29120;52.006;6.020;2023-02-22T07:43:24;7.00;99.90
43524;DHT22;29120;52.006;6.020;2023-02-22T07:45:51;7.00;99.90
43524;DHT22;29120;52.006;6.020;2023-02-22T07:48:17;7.00;99.90
43524;DHT22;29120;52.006;6.020;2023-02-22T07:50:42;7.00;99.90
43524;DHT22;29120;52.006;6.020;2023-02-22T07:53:12;7.10;99.90
43524;DHT22;29120;52.006;6.020;2023-02-22T07:55:38;7.10;99.90
43524;DHT22;29120;52.006;6.020;2023-02-22T07:58:05;7.20;99.90
43524;DHT22;29120;52.006;6.020;2023-02-22T08:00:32;7.20;99.90
43524;DHT22;29120;52.006;6.020;2023-02-22T08:02:58;7.20;99.90
43524;DHT22;29120;52.006;6.020;2023-02-22T08:05:25;7.20;99.90
43524;DHT22;29120;52.006;6.020;2023-02-22T08:07:51;7.20;99.90
43524;DHT22;29120;52.006;6.020;2023-02-22T08:10:17;7.30;99.90
43524;DHT22;29120;52.006;6.020;2023-02-22T08:12:43;7.30;99.90
43524;DHT22;29120;52.006;6.020;2023-02-22T08:15:12;7.30;99.90
43524;DHT22;29120;52.006;6.020;2023-02-22T08:17:39;7.30;99.90
43524;DHT22;29120;52.006;6.020;2023-02-22T08:20:04;7.30;99.90
43524;DHT22;29120;52.006;6.020;2023-02-22T08:22:30;7.30;99.90
43524;DHT22;29120;52.006;6.020;2023-02-22T08:24:55;7.30;99.90
43524;DHT22;29120;52.006;6.020;2023-02-22T08:27:25;7.40;99.90
43524;DHT22;29120;52.006;6.020;2023-02-22T08:29:51;7.40;99.90
43524;DHT22;29120;52.006;6.020;2023-02-22T08:32:17;7.50;99.90
43524;DHT22;29120;52.006;6.020;2023-02-22T08:34:42;7.50;99.90
43524;DHT22;29120;52.006;6.020;2023-02-22T08:37:09;7.60;99.90
43524;DHT22;29120;52.006;6.020;2023-02-22T08:39:34;7.60;99.90
43524;DHT22;29120;52.006;6.020;2023-02-22T08:42:00;7.50;99.90
43524;DHT22;29120;52.006;6.020;2023-02-22T08:44:25;7.50;99.90
43524;DHT22;29120;52.006;6.020;2023-02-22T08:46:51;7.60;99.90
43524;DHT22;29120;52.006;6.020;2023-02-22T08:49:16;7.60;99.90
43524;DHT22;29120;52.006;6.020;2023-02-22T08:51:42;7.70;99.90
43524;DHT22;29120;52.006;6.020;2023-02-22T08:54:07;7.70;99.90
43524;DHT22;29120;52.006;6.020;2023-02-22T08:56:33;7.70;99.90
43524;DHT22;29120;52.006;6.020;2023-02-22T08:58:58;7.70;99.90
43524;DHT22;29120;52.006;6.020;2023-02-22T09:01:24;7.70;99.90
43524;DHT22;29120;52.006;6.020;2023-02-22T09:03:50;7.70;99.90
43524;DHT22;29120;52.006;6.020;2023-02-22T09:06:16;7.70;99.90
43524;DHT22;29120;52.006;6.020;2023-02-22T09:08:42;7.70;99.90
43524;DHT22;29120;52.006;6.020;2023-02-22T09:11:07;7.70;99.90
43524;DHT22;29120;52.006;6.020;2023-02-22T09:13:32;7.80;99.90
43524;DHT22;29120;52.006;6.020;2023-02-22T09:15:58;7.80;99.90
43524;DHT22;29120;52.006;6.020;2023-02-22T09:18:24;7.90;99.90
43524;DHT22;29120;52.006;6.020;2023-02-22T09:20:51;7.90;99.90
43524;DHT22;29120;52.006;6.020;2023-02-22T09:23:16;8.00;99.90
43524;DHT22;29120;52.006;6.020;2023-02-22T09:25:43;8.00;99.90
43524;DHT22;29120;52.006;6.020;2023-02-22T09:28:09;8.20;99.90
43524;DHT22;29120;52.006;6.020;2023-02-22T09:30:35;8.30;99.90
43524;DHT22;29120;52.006;6.020;2023-02-22T09:33:05;8.40;99.90
43524;DHT22;29120;52.006;6.020;2023-02-22T09:35:31;8.50;99.90
43524;DHT22;29120;52.006;6.020;2023-02-22T09:38:00;8.50;99.90
43524;DHT22;29120;52.006;6.020;2023-02-22T09:40:27;8.60;99.90
43524;DHT22;29120;52.006;6.020;2023-02-22T09:43:01;8.80;99.90
43524;DHT22;29120;52.006;6.020;2023-02-22T09:48:04;8.80;99.90
43524;DHT22;29120;52.006;6.020;2023-02-22T09:50:32;8.90;99.90
43524;DHT22;29120;52.006;6.020;2023-02-22T10:01:03;9.20;99.90
43524;DHT22;29120;52.006;6.020;2023-02-22T10:03:39;9.30;99.90
43524;DHT22;29120;52.006;6.020;2023-02-22T10:06:10;9.30;99.90
43524;DHT22;29120;52.006;6.020;2023-02-22T10:08:37;9.40;99.90
43524;DHT22;29120;52.006;6.020;2023-02-22T10:26:30;10.00;99.90
43524;DHT22;29120;52.006;6.020;2023-02-22T10:29:00;10.10;99.90
43524;DHT22;29120;52.006;6.020;2023-02-22T10:31:28;10.40;99.90
43524;DHT22;29120;52.006;6.020;2023-02-22T10:33:56;10.60;99.90
43524;DHT22;29120;52.006;6.020;2023-02-22T10:36:22;10.70;99.90
43524;DHT22;29120;52.006;6.020;2023-02-22T10:38:53;10.90;99.90
43524;DHT22;29120;52.006;6.020;2023-02-22T10:41:22;11.10;99.90
43524;DHT22;29120;52.006;6.020;2023-02-22T10:43:50;11.40;99.90
43524;DHT22;29120;52.006;6.020;2023-02-22T10:46:16;11.60;99.90
43524;DHT22;29120;52.006;6.020;2023-02-22T10:48:43;11.90;99.90
43524;DHT22;29120;52.006;6.020;2023-02-22T10:51:09;12.10;99.90
43524;DHT22;29120;52.006;6.020;2023-02-22T10:53:35;12.30;99.90
43524;DHT22;29120;52.006;6.020;2023-02-22T10:56:06;12.50;99.90
43524;DHT22;29120;52.006;6.020;2023-02-22T10:59:05;12.80;99.90
43524;DHT22;29120;52.006;6.020;2023-02-22T11:01:26;13.10;99.90
43524;DHT22;29120;52.006;6.020;2023-02-22T11:04:24;13.50;99.90
43524;DHT22;29120;52.006;6.020;2023-02-22T11:06:44;13.50;99.90
43524;DHT22;29120;52.006;6.020;2023-02-22T11:09:14;13.70;99.90
43524;DHT22;29120;52.006;6.020;2023-02-22T11:11:46;13.80;99.90
43524;DHT22;29120;52.006;6.020;2023-02-22T11:14:12;14.10;99.90
43524;DHT22;29120;52.006;6.020;2023-02-22T11:16:49;14.50;99.90
43524;DHT22;29120;52.006;6.020;2023-02-22T11:19:16;15.00;99.90
43524;DHT22;29120;52.006;6.020;2023-02-22T11:21:45;15.30;99.90
43524;DHT22;29120;52.006;6.020;2023-02-22T11:24:12;15.80;99.90
43524;DHT22;29120;52.006;6.020;2023-02-22T11:26:39;16.00;99.90
43524;DHT22;29120;52.006;6.020;2023-02-22T11:29:08;16.00;99.90
43524;DHT22;29120;52.006;6.020;2023-02-22T11:31:40;16.20;99.90
43524;DHT22;29120;52.006;6.020;2023-02-22T11:34:05;16.70;99.70
43524;DHT22;29120;52.006;6.020;2023-02-22T11:38:57;17.30;98.40
43524;DHT22;29120;52.006;6.020;2023-02-22T11:41:43;17.50;98.20
43524;DHT22;29120;52.006;6.020;2023-02-22T11:46:53;18.00;97.00
43524;DHT22;29120;52.006;6.020;2023-02-22T11:49:22;18.20;96.40
43524;DHT22;29120;52.006;6.020;2023-02-22T11:51:55;18.30;95.90
43524;DHT22;29120;52.006;6.020;2023-02-22T12:07:56;16.70;91.00
43524;DHT22;29120;52.006;6.020;2023-02-22T12:10:32;15.90;90.40
43524;DHT22;29120;52.006;6.020;2023-02-22T12:18:12;14.40;92.20
43524;DHT22;29120;52.006;6.020;2023-02-22T12:20:46;14.20;92.80
43524;DHT22;29120;52.006;6.020;2023-02-22T12:23:22;14.20;93.20
43524;DHT22;29120;52.006;6.020;2023-02-22T12:31:17;14.50;93.50
43524;DHT22;29120;52.006;6.020;2023-02-22T12:33:54;15.00;93.40
43524;DHT22;29120;52.006;6.020;2023-02-22T12:36:27;15.20;92.40
43524;DHT22;29120;52.006;6.020;2023-02-22T12:38:58;15.30;92.40
43524;DHT22;29120;52.006;6.020;2023-02-22T12:41:30;15.50;92.00
43524;DHT22;29120;52.006;6.020;2023-02-22T12:44:02;15.70;91.50
43524;DHT22;29120;52.006;6.020;2023-02-22T12:46:35;15.90;91.70
43524;DHT22;29120;52.006;6.020;2023-02-22T12:49:03;15.90;91.70
43524;DHT22;29120;52.006;6.020;2023-02-22T12:51:48;15.70;91.80
43524;DHT22;29120;52.006;6.020;2023-02-22T12:54:23;15.50;92.40
43524;DHT22;29120;52.006;6.020;2023-02-22T12:56:56;15.20;92.50
43524;DHT22;29120;52.006;6.020;2023-02-22T12:59:33;15.00;92.90
43524;DHT22;29120;52.006;6.020;2023-02-22T13:02:11;14.70;92.30
43524;DHT22;29120;52.006;6.020;2023-02-22T13:04:38;14.40;92.60
43524;DHT22;29120;52.006;6.020;2023-02-22T13:07:14;14.30;92.60
43524;DHT22;29120;52.006;6.020;2023-02-22T13:20:06;14.10;93.90
43524;DHT22;29120;52.006;6.020;2023-02-22T13:22:54;13.90;94.10
43524;DHT22;29120;52.006;6.020;2023-02-22T13:25:27;13.80;94.30
43524;DHT22;29120;52.006;6.020;2023-02-22T13:27:58;13.70;94.30
43524;DHT22;29120;52.006;6.020;2023-02-22T13:30:28;13.60;94.40
43524;DHT22;29120;52.006;6.020;2023-02-22T13:35:54;13.40;94.80
43524;DHT22;29120;52.006;6.020;2023-02-22T13:53:41;13.20;96.40
43524;DHT22;29120;52.006;6.020;2023-02-22T13:56:11;13.20;96.60
43524;DHT22;29120;52.006;6.020;2023-02-22T14:01:41;13.10;97.00
43524;DHT22;29120;52.006;6.020;2023-02-22T14:06:50;13.10;97.50
43524;DHT22;29120;52.006;6.020;2023-02-22T14:09:18;13.00;97.70
43524;DHT22;29120;52.006;6.020;2023-02-22T14:12:01;13.00;97.70
43524;DHT22;29120;52.006;6.020;2023-02-22T14:14:27;12.90;97.80
43524;DHT22;29120;52.006;6.020;2023-02-22T14:20:00;12.80;98.00
43524;DHT22;29120;52.006;6.020;2023-02-22T14:22:26;12.80;98.00
43524;DHT22;29120;52.006;6.020;2023-02-22T14:24:52;12.80;98.00
43524;DHT22;29120;52.006;6.020;2023-02-22T14:27:18;12.80;98.10
43524;DHT22;29120;52.006;6.020;2023-02-22T14:29:50;12.70;98.10
43524;DHT22;29120;52.006;6.020;2023-02-22T14:32:17;12.70;98.20
43524;DHT22;29120;52.006;6.020;2023-02-22T14:34:46;12.60;98.30
43524;DHT22;29120;52.006;6.020;2023-02-22T14:39:48;12.60;98.50
43524;DHT22;29120;52.006;6.020;2023-02-22T14:47:31;12.50;99.00
43524;DHT22;29120;52.006;6.020;2023-02-22T14:50:05;12.40;99.20
43524;DHT22;29120;52.006;6.020;2023-02-22T14:52:33;12.40;99.40
43524;DHT22;29120;52.006;6.020;2023-02-22T14:55:11;12.30;99.60
43524;DHT22;29120;52.006;6.020;2023-02-22T14:57:49;12.30;99.80
43524;DHT22;29120;52.006;6.020;2023-02-22T15:02:48;12.20;99.90
43524;DHT22;29120;52.006;6.020;2023-02-22T15:05:18;12.10;99.90
43524;DHT22;29120;52.006;6.020;2023-02-22T15:08:17;12.10;99.90
43524;DHT22;29120;52.006;6.020;2023-02-22T15:13:02;12.00;99.90
43524;DHT22;29120;52.006;6.020;2023-02-22T15:15:35;12.00;99.90
43524;DHT22;29120;52.006;6.020;2023-02-22T15:18:01;12.00;99.90
43524;DHT22;29120;52.006;6.020;2023-02-22T15:20:31;12.00;99.90
43524;DHT22;29120;52.006;6.020;2023-02-22T15:22:58;11.90;99.90
43524;DHT22;29120;52.006;6.020;2023-02-22T15:25:25;11.90;99.90
43524;DHT22;29120;52.006;6.020;2023-02-22T15:27:52;11.90;99.90
43524;DHT22;29120;52.006;6.020;2023-02-22T15:30:19;11.90;99.90
43524;DHT22;29120;52.006;6.020;2023-02-22T15:32:46;11.90;99.90
43524;DHT22;29120;52.006;6.020;2023-02-22T15:35:16;11.90;99.90
43524;DHT22;29120;52.006;6.020;2023-02-22T15:37:43;11.80;99.90
43524;DHT22;29120;52.006;6.020;2023-02-22T15:40:13;11.80;99.90
43524;DHT22;29120;52.006;6.020;2023-02-22T15:42:46;11.80;99.90
43524;DHT22;29120;52.006;6.020;2023-02-22T15:45:16;11.70;99.90
43524;DHT22;29120;52.006;6.020;2023-02-22T15:47:44;11.60;99.90
43524;DHT22;29120;52.006;6.020;2023-02-22T15:52:48;11.50;99.90
43524;DHT22;29120;52.006;6.020;2023-02-22T15:55:17;11.50;99.90
43524;DHT22;29120;52.006;6.020;2023-02-22T15:57:42;11.50;99.90
43524;DHT22;29120;52.006;6.020;2023-02-22T16:00:18;11.50;99.90
43524;DHT22;29120;52.006;6.020;2023-02-22T16:02:43;11.50;99.90
43524;DHT22;29120;52.006;6.020;2023-02-22T16:05:10;11.40;99.90
43524;DHT22;29120;52.006;6.020;2023-02-22T16:07:43;11.40;99.90
43524;DHT22;29120;52.006;6.020;2023-02-22T16:10:20;11.40;99.90
43524;DHT22;29120;52.006;6.020;2023-02-22T16:12:46;11.40;99.90
43524;DHT22;29120;52.006;6.020;2023-02-22T16:15:18;11.30;99.90
43524;DHT22;29120;52.006;6.020;2023-02-22T16:17:44;11.30;99.90
43524;DHT22;29120;52.006;6.020;2023-02-22T16:22:35;11.20;99.90
43524;DHT22;29120;52.006;6.020;2023-02-22T16:27:43;11.20;99.90
43524;DHT22;29120;52.006;6.020;2023-02-22T16:32:45;11.10;99.90
43524;DHT22;29120;52.006;6.020;2023-02-22T16:35:11;11.10;99.90
43524;DHT22;29120;52.006;6.020;2023-02-22T16:37:46;11.10;99.90
43524;DHT22;29120;52.006;6.020;2023-02-22T16:40:20;11.10;99.90
43524;DHT22;29120;52.006;6.020;2023-02-22T16:42:46;11.10;99.90
43524;DHT22;29120;52.006;6.020;2023-02-22T16:45:15;11.00;99.90
43524;DHT22;29120;52.006;6.020;2023-02-22T16:47:41;11.00;99.90
43524;DHT22;29120;52.006;6.020;2023-02-22T16:50:07;11.00;99.90
43524;DHT22;29120;52.006;6.020;2023-02-22T16:52:32;10.90;99.90
43524;DHT22;29120;52.006;6.020;2023-02-22T16:54:58;10.90;99.90
43524;DHT22;29120;52.006;6.020;2023-02-22T16:57:26;10.90;99.90
43524;DHT22;29120;52.006;6.020;2023-02-22T16:59:55;10.90;99.90
43524;DHT22;29120;52.006;6.020;2023-02-22T17:02:21;10.80;99.90
43524;DHT22;29120;52.006;6.020;2023-02-22T17:04:46;10.80;99.90
43524;DHT22;29120;52.006;6.020;2023-02-22T17:07:15;10.80;99.90
43524;DHT22;29120;52.006;6.020;2023-02-22T17:09:41;10.80;99.90
43524;DHT22;29120;52.006;6.020;2023-02-22T17:12:06;10.80;99.90
43524;DHT22;29120;52.006;6.020;2023-02-22T17:14:32;10.80;99.90
43524;DHT22;29120;52.006;6.020;2023-02-22T17:16:58;10.80;99.90
43524;DHT22;29120;52.006;6.020;2023-02-22T17:19:24;10.80;99.90
43524;DHT22;29120;52.006;6.020;2023-02-22T17:21:50;10.80;99.90
43524;DHT22;29120;52.006;6.020;2023-02-22T17:24:16;10.70;99.90
43524;DHT22;29120;52.006;6.020;2023-02-22T17:26:42;10.70;99.90
43524;DHT22;29120;52.006;6.020;2023-02-22T17:29:08;10.70;99.90
43524;DHT22;29120;52.006;6.020;2023-02-22T17:31:33;10.70;99.90
43524;DHT22;29120;52.006;6.020;2023-02-22T17:34:00;10.70;99.90
43524;DHT22;29120;52.006;6.020;2023-02-22T17:36:29;10.70;99.90
43524;DHT22;29120;52.006;6.020;2023-02-22T17:38:55;10.60;99.90
43524;DHT22;29120;52.006;6.020;2023-02-22T17:41:20;10.60;99.90
43524;DHT22;29120;52.006;6.020;2023-02-22T17:43:46;10.60;99.90
43524;DHT22;29120;52.006;6.020;2023-02-22T17:46:12;10.60;99.90
43524;DHT22;29120;52.006;6.020;2023-02-22T17:48:37;10.60;99.90
43524;DHT22;29120;52.006;6.020;2023-02-22T17:51:04;10.50;99.90
43524;DHT22;29120;52.006;6.020;2023-02-22T17:53:30;10.50;99.90
43524;DHT22;29120;52.006;6.020;2023-02-22T17:55:56;10.50;99.90
43524;DHT22;29120;52.006;6.020;2023-02-22T17:58:22;10.50;99.90
43524;DHT22;29120;52.006;6.020;2023-02-22T18:00:49;10.50;99.90
43524;DHT22;29120;52.006;6.020;2023-02-22T18:03:17;10.50;99.90
43524;DHT22;29120;52.006;6.020;2023-02-22T18:05:46;10.50;99.90
43524;DHT22;29120;52.006;6.020;2023-02-22T18:08:12;10.50;99.90